Time;durP1;ratioP1;P1;durP2;ratioP2;P2;SDS_P1;SDS_P2;PMS_P1;PMS_P2;Temp;Humidity;BMP_temperature;BMP_pressure;BME280_temperature;BME280_humidity;BME280_pressure;Samples;Min_cycle;Max_cycle;Signal;HPM_P1;HPM_P2
2022/07/06 00:01:20;;;;;;;13.68;9.50;;;;;;;17.41;89.73;100452.31;1674788;85;25650;-71
2022/07/06 00:03:47;;;;;;;10.82;9.78;;;;;;;17.40;89.57;100454.81;1674939;85;26564;-71
2022/07/06 00:06:14;;;;;;;11.08;8.55;;;;;;;17.39;89.79;100455.98;1675085;85;25496;-71
2022/07/06 00:08:40;;;;;;;10.72;8.93;;;;;;;17.36;89.80;100455.51;1674969;85;27348;-71
2022/07/06 00:11:07;;;;;;;10.03;8.95;;;;;;;17.35;89.74;100447.69;1674893;85;25710;-71
2022/07/06 00:13:33;;;;;;;10.10;9.10;;;;;;;17.33;89.88;100450.77;1674790;85;25749;-71
2022/07/06 00:15:59;;;;;;;10.55;9.30;;;;;;;17.31;89.87;100455.77;1674902;85;25626;-71
2022/07/06 00:18:25;;;;;;;9.73;8.73;;;;;;;17.30;90.05;100449.31;1675459;85;25629;-71
2022/07/06 00:20:51;;;;;;;9.40;8.58;;;;;;;17.28;89.90;100448.29;1674813;85;27395;-71
2022/07/06 00:23:17;;;;;;;9.05;8.20;;;;;;;17.26;90.01;100451.14;1674504;85;25761;-71
2022/07/06 00:25:44;;;;;;;10.03;9.03;;;;;;;17.24;89.95;100448.75;1675181;85;25717;-71
2022/07/06 00:28:11;;;;;;;9.20;8.23;;;;;;;17.23;89.96;100443.63;1674793;85;26365;-72
2022/07/06 00:30:37;;;;;;;10.05;9.05;;;;;;;17.22;90.13;100440.70;1674897;85;25329;-71
2022/07/06 00:33:04;;;;;;;11.18;8.68;;;;;;;17.20;90.22;100441.05;1675006;85;27428;-72
2022/07/06 00:35:30;;;;;;;10.68;8.23;;;;;;;17.18;90.20;100434.55;1674621;85;25768;-72
2022/07/06 00:37:56;;;;;;;10.30;8.00;;;;;;;17.17;90.19;100434.91;1653333;85;25692;-72
2022/07/06 00:40:22;;;;;;;10.70;8.00;;;;;;;17.16;90.01;100431.94;1674568;85;26319;-72
2022/07/06 00:42:49;;;;;;;9.88;8.58;;;;;;;17.13;90.02;100430.72;1680681;85;25678;-71
2022/07/06 00:45:18;;;;;;;9.83;8.83;;;;;;;17.11;90.19;100428.09;1685202;84;27409;-72
2022/07/06 00:47:45;;;;;;;10.80;8.30;;;;;;;17.10;90.08;100425.94;1681044;84;25732;-70
2022/07/06 00:50:18;;;;;;;10.63;9.53;;;;;;;17.09;90.15;100433.13;1680611;85;25696;-71
2022/07/06 00:53:03;;;;;;;10.13;8.75;;;;;;;17.09;90.40;100433.13;1680540;85;25634;-70
2022/07/06 00:55:33;;;;;;;11.78;8.95;;;;;;;17.06;90.49;100429.16;1680532;85;25629;-70
2022/07/06 00:58:03;;;;;;;9.60;8.60;;;;;;;17.06;90.62;100429.16;1680483;85;27376;-70
2022/07/06 01:00:31;;;;;;;10.30;9.30;;;;;;;17.06;90.82;100421.52;1680468;83;25826;-71
2022/07/06 01:02:57;;;;;;;11.65;9.95;;;;;;;17.05;90.96;100420.73;1676865;85;25692;-71
2022/07/06 01:05:24;;;;;;;9.95;9.03;;;;;;;17.06;90.83;100417.42;1680314;85;25872;-71
2022/07/06 01:07:53;;;;;;;12.35;9.30;;;;;;;17.05;90.78;100418.00;1680638;85;25689;-70
2022/07/06 01:10:22;;;;;;;11.83;8.23;;;;;;;17.06;90.84;100417.42;1680603;85;27330;-70
2022/07/06 01:12:49;;;;;;;11.15;9.30;;;;;;;17.04;90.79;100416.40;1680501;85;32540;-70
2022/07/06 01:15:20;;;;;;;9.55;8.53;;;;;;;17.02;90.79;100409.13;1658598;85;25649;-70
2022/07/06 01:17:47;;;;;;;10.95;8.93;;;;;;;17.01;90.79;100412.20;1679199;85;25684;-70
2022/07/06 01:20:16;;;;;;;12.23;8.53;;;;;;;16.99;90.68;100416.09;1680571;85;25741;-70
2022/07/06 01:22:44;;;;;;;;;;;;;;;16.98;90.78;100412.34;1683259;85;27263;-70
2022/07/06 01:25:11;;;;;;;9.13;8.28;;;;;;;16.97;91.02;100408.83;1680627;85;25501;-70
2022/07/06 01:27:40;;;;;;;9.48;8.68;;;;;;;16.96;90.98;100406.45;1680544;85;25681;-70
2022/07/06 01:30:13;;;;;;;10.55;8.00;;;;;;;16.95;91.06;100403.48;1671430;85;25697;-70
2022/07/06 01:32:40;;;;;;;11.22;8.35;;;;;;;16.94;90.87;100410.07;1671374;85;25798;-70
2022/07/06 01:35:09;;;;;;;9.93;8.28;;;;;;;16.91;90.91;100411.58;1668173;85;27546;-70
2022/07/06 01:37:37;;;;;;;11.55;8.85;;;;;;;16.91;90.99;100410.80;1680710;84;25384;-70
2022/07/06 01:40:07;;;;;;;9.25;8.20;;;;;;;16.91;91.04;100403.97;1680694;85;25689;-70
2022/07/06 01:42:34;;;;;;;8.75;7.85;;;;;;;16.90;90.94;100405.88;1680704;84;25641;-70
2022/07/06 01:45:01;;;;;;;8.58;7.78;;;;;;;16.89;90.95;100404.86;1680782;85;25686;-70
2022/07/06 01:47:28;;;;;;;8.63;7.83;;;;;;;16.89;91.17;100404.86;1680637;85;27454;-70
2022/07/06 01:49:59;;;;;;;12.78;7.65;;;;;;;16.88;91.23;100413.64;1680500;85;25767;-70
2022/07/06 01:52:27;;;;;;;11.35;8.23;;;;;;;16.88;91.35;100408.17;1680669;85;25384;-70
2022/07/06 01:54:55;;;;;;;9.10;7.97;;;;;;;16.88;91.46;100408.17;1680687;85;25720;-70
2022/07/06 01:57:21;;;;;;;11.97;8.60;;;;;;;16.89;91.45;100404.86;1680545;85;25690;-70
2022/07/06 01:59:47;;;;;;;9.95;8.38;;;;;;;16.87;91.38;100403.84;1680667;85;27398;-70
2022/07/06 02:02:15;;;;;;;9.33;8.33;;;;;;;16.88;91.51;100401.92;1680564;85;25927;-70
2022/07/06 02:04:41;;;;;;;10.65;8.05;;;;;;;16.87;91.43;100407.16;1680491;85;25398;-70
2022/07/06 02:07:07;;;;;;;9.13;7.85;;;;;;;16.86;91.38;100408.31;1680730;85;26182;-70
2022/07/06 02:09:33;;;;;;;9.13;8.23;;;;;;;16.86;91.53;100401.48;1680665;85;25738;-70
2022/07/06 02:12:00;;;;;;;10.55;8.43;;;;;;;16.85;91.32;100402.03;1680517;85;27395;-70
2022/07/06 02:14:26;;;;;;;9.33;8.45;;;;;;;16.83;91.42;100402.94;1680596;85;25819;-70
2022/07/06 02:16:52;;;;;;;9.60;8.33;;;;;;;16.83;91.52;100403.52;1680649;85;29730;-70
2022/07/06 02:19:18;;;;;;;11.80;9.25;;;;;;;16.82;91.59;100401.33;1680462;85;25904;-70
2022/07/06 02:21:43;;;;;;;9.95;8.05;;;;;;;16.80;91.52;100403.08;1680648;85;25693;-70
2022/07/06 02:24:10;;;;;;;9.30;8.43;;;;;;;16.80;91.64;100406.36;1680720;85;27335;-70
2022/07/06 02:26:36;;;;;;;11.33;8.95;;;;;;;16.79;91.69;100400.69;1680375;85;25722;-70
2022/07/06 02:29:02;;;;;;;10.80;9.58;;;;;;;16.78;91.75;100408.64;1680767;85;25392;-70
2022/07/06 02:31:28;;;;;;;11.93;8.45;;;;;;;16.78;91.84;100407.28;1680559;85;25628;-70
2022/07/06 02:33:54;;;;;;;9.75;8.75;;;;;;;16.77;91.88;100402.40;1680636;85;25725;-70
2022/07/06 02:36:20;;;;;;;10.63;8.90;;;;;;;16.76;91.79;100400.80;1680575;85;27794;-70
2022/07/06 02:38:46;;;;;;;11.70;9.03;;;;;;;16.76;91.77;100398.65;1680630;85;25382;-71
2022/07/06 02:41:12;;;;;;;11.93;8.60;;;;;;;16.73;91.65;100405.59;1680581;85;25576;-71
2022/07/06 02:43:39;;;;;;;12.88;8.73;;;;;;;16.72;91.53;100402.65;1681653;84;25831;-71
2022/07/06 02:46:05;;;;;;;8.95;8.05;;;;;;;16.69;91.47;100404.70;1680685;85;25460;-71
2022/07/06 02:48:31;;;;;;;12.58;8.85;;;;;;;16.68;91.65;100404.47;1680595;85;27406;-71
2022/07/06 02:50:58;;;;;;;9.03;8.15;;;;;;;16.68;91.73;100401.73;1680399;85;26334;-71
2022/07/06 02:53:24;;;;;;;8.98;7.83;;;;;;;16.67;91.74;100402.89;1680644;85;25645;-71
2022/07/06 02:55:51;;;;;;;8.40;7.62;;;;;;;16.66;91.72;100406.76;1680663;85;25645;-71
2022/07/06 02:58:17;;;;;;;9.78;8.60;;;;;;;16.66;91.98;100408.12;1680537;85;25673;-71
2022/07/06 03:00:43;;;;;;;11.15;8.28;;;;;;;16.67;92.05;100402.89;1671261;85;27952;-71
2022/07/06 03:03:10;;;;;;;8.53;7.72;;;;;;;16.67;92.16;100404.27;1671319;85;25377;-71
2022/07/06 03:05:36;;;;;;;10.10;8.38;;;;;;;16.67;92.18;100393.89;1666118;85;25568;-71
2022/07/06 03:08:02;;;;;;;9.18;7.70;;;;;;;16.68;92.14;100403.69;1680717;84;25819;-71
2022/07/06 03:10:29;;;;;;;11.80;7.70;;;;;;;16.67;91.98;100403.45;1680593;85;25688;-71
2022/07/06 03:12:55;;;;;;;8.80;7.08;;;;;;;16.64;92.01;100398.70;1680544;84;27308;-71
2022/07/06 03:15:21;;;;;;;7.67;6.92;;;;;;;16.64;92.35;100394.03;1680532;85;25622;-71
2022/07/06 03:17:47;;;;;;;12.68;7.40;;;;;;;16.63;92.24;100393.80;1680670;85;25546;-71
2022/07/06 03:20:14;;;;;;;7.92;7.12;;;;;;;16.62;92.26;100390.28;1680441;85;25607;-71
2022/07/06 03:22:40;;;;;;;10.38;6.78;;;;;;;16.63;92.23;100392.42;1680653;85;25594;-71
2022/07/06 03:25:06;;;;;;;8.15;6.65;;;;;;;16.61;92.36;100394.72;1680646;85;27588;-71
2022/07/06 03:27:33;;;;;;;7.60;6.75;;;;;;;16.61;92.46;100391.41;1680356;85;25401;-71
2022/07/06 03:29:59;;;;;;;7.15;6.45;;;;;;;16.61;92.52;100387.31;1680758;85;25661;-71
2022/07/06 03:32:26;;;;;;;7.75;6.65;;;;;;;16.61;92.46;100379.70;1680634;85;25777;-71
2022/07/06 03:34:52;;;;;;;8.05;6.45;;;;;;;16.59;92.45;100380.04;1680617;85;25618;-71
2022/07/06 03:37:18;;;;;;;6.97;6.20;;;;;;;16.58;92.45;100378.47;1680580;85;28200;-71
2022/07/06 03:39:44;;;;;;;7.95;5.40;;;;;;;16.59;92.40;100380.63;1680667;85;25609;-71
2022/07/06 03:42:10;;;;;;;6.15;5.42;;;;;;;16.57;92.30;100376.09;1680546;85;28800;-71
2022/07/06 03:44:36;;;;;;;6.50;5.37;;;;;;;16.56;92.34;100373.12;1674116;84;25758;-71
2022/07/06 03:47:02;;;;;;;6.12;5.50;;;;;;;16.54;92.22;100368.00;1672803;85;25650;-71
2022/07/06 03:49:28;;;;;;;7.10;5.70;;;;;;;16.52;92.25;100371.66;1672400;84;27411;-71
2022/07/06 03:51:54;;;;;;;5.42;4.92;;;;;;;16.50;92.22;100374.50;1651632;85;25749;-71
2022/07/06 03:54:20;;;;;;;8.58;5.70;;;;;;;16.48;92.35;100377.59;1673115;84;25799;-71
2022/07/06 03:56:46;;;;;;;8.53;6.30;;;;;;;16.47;92.33;100386.13;1673663;84;26386;-71
2022/07/06 03:59:14;;;;;;;7.58;6.12;;;;;;;16.44;92.36;100379.42;1673504;84;25648;-71
2022/07/06 04:01:40;;;;;;;6.65;5.80;;;;;;;16.43;92.71;100364.98;1672855;84;27385;-71
2022/07/06 04:04:06;;;;;;;6.10;5.58;;;;;;;16.43;92.59;100362.83;1682802;84;25447;-71
2022/07/06 04:06:34;;;;;;;7.83;5.67;;;;;;;16.42;92.68;100351.67;1675474;84;25618;-71
2022/07/06 04:09:01;;;;;;;9.30;6.47;;;;;;;16.41;92.98;100341.34;1672976;85;26200;-71
2022/07/06 04:11:27;;;;;;;7.53;6.62;;;;;;;16.42;92.93;100344.85;1672890;85;25447;-71
2022/07/06 04:13:54;;;;;;;8.40;6.10;;;;;;;16.42;92.89;100338.81;1673083;84;27914;-71
2022/07/06 04:16:21;;;;;;;7.05;6.33;;;;;;;16.42;93.15;100342.13;1672985;85;25573;-71
2022/07/06 04:18:47;;;;;;;7.85;5.80;;;;;;;16.41;92.99;100350.08;1673346;84;25474;-71
2022/07/06 04:21:13;;;;;;;10.58;9.13;;;;;;;16.41;93.01;100349.53;1672909;85;26405;-71
2022/07/06 04:23:39;;;;;;;12.70;8.45;;;;;;;16.39;92.80;100346.91;1672877;85;25413;-70
2022/07/06 04:26:05;;;;;;;7.12;6.28;;;;;;;16.39;93.10;100349.05;1672968;85;26979;-68
2022/07/06 04:28:31;;;;;;;9.30;7.08;;;;;;;16.42;93.57;100345.64;1672822;84;25629;-67
2022/07/06 04:30:57;;;;;;;7.67;6.87;;;;;;;16.47;94.40;100340.51;1672985;85;25584;-67
2022/07/06 04:33:23;;;;;;;7.28;6.50;;;;;;;16.52;94.53;100335.37;1672650;85;26344;-67
2022/07/06 04:35:50;;;;;;;8.63;6.87;;;;;;;16.57;94.55;100335.13;1672784;85;25450;-67
2022/07/06 04:38:16;;;;;;;7.30;6.40;;;;;;;16.60;94.49;100327.58;1673010;85;27379;-66
2022/07/06 04:40:42;;;;;;;7.62;6.33;;;;;;;16.63;94.12;100340.55;1673607;84;25630;-67
2022/07/06 04:43:08;;;;;;;10.53;6.90;;;;;;;16.64;93.90;100334.53;1672936;84;25842;-67
2022/07/06 04:45:34;;;;;;;6.83;6.15;;;;;;;16.67;94.21;100342.00;1675066;85;25627;-68
2022/07/06 04:48:01;;;;;;;7.45;6.60;;;;;;;16.70;93.98;100340.76;1675026;85;25662;-69
2022/07/06 04:50:27;;;;;;;6.80;6.10;;;;;;;16.71;93.98;100347.01;1674967;85;27333;-66
2022/07/06 04:52:53;;;;;;;8.38;6.33;;;;;;;16.74;94.15;100343.58;1674991;85;25742;-66
2022/07/06 04:55:19;;;;;;;7.22;6.22;;;;;;;16.78;94.26;100352.08;1675071;85;25443;-69
2022/07/06 04:57:46;;;;;;;8.13;6.22;;;;;;;16.81;94.00;100347.28;1675061;85;25576;-68
2022/07/06 05:00:14;;;;;;;13.80;10.28;;;;;;;16.84;93.82;100343.62;1675113;85;25484;-66
2022/07/06 05:02:40;;;;;;;38.85;24.72;;;;;;;16.87;93.85;100341.59;1675112;85;27314;-66
2022/07/06 05:05:09;;;;;;;11.10;7.80;;;;;;;16.89;93.57;100347.50;1674937;85;25736;-65
2022/07/06 05:07:39;;;;;;;7.25;6.47;;;;;;;16.92;94.03;100347.58;1654093;85;25489;-66
2022/07/06 05:10:06;;;;;;;6.92;6.22;;;;;;;16.99;94.37;100352.44;1675051;85;26310;-65
2022/07/06 05:12:32;;;;;;;8.18;6.03;;;;;;;17.03;94.51;100355.30;1675501;85;25421;-66
2022/07/06 05:14:58;;;;;;;11.03;6.20;;;;;;;17.04;94.23;100352.19;1675179;85;27320;-66
2022/07/06 05:17:25;;;;;;;6.22;5.72;;;;;;;17.06;93.47;100350.47;1674877;85;25456;-68
2022/07/06 05:19:52;;;;;;;6.87;6.20;;;;;;;17.05;93.10;100355.15;1675019;85;25445;-70
2022/07/06 05:22:18;;;;;;;9.05;5.62;;;;;;;17.02;92.47;100357.80;1674845;85;25609;-65
2022/07/06 05:24:45;;;;;;;8.08;6.62;;;;;;;17.02;92.80;100353.70;1675041;85;25637;-66
2022/07/06 05:27:11;;;;;;;8.48;5.90;;;;;;;17.02;92.83;100355.06;1674931;85;28051;-67
2022/07/06 05:29:36;;;;;;;8.93;5.30;;;;;;;17.01;92.95;100354.83;1680166;85;25420;-67
2022/07/06 05:32:04;;;;;;;6.70;5.55;;;;;;;16.97;92.43;100354.19;1681734;85;25685;-68
2022/07/06 05:34:30;;;;;;;7.00;5.87;;;;;;;16.95;92.61;100344.16;1674729;85;25692;-67
2022/07/06 05:36:56;;;;;;;6.30;4.45;;;;;;;16.93;91.96;100357.38;1674828;85;25698;-68
2022/07/06 05:39:23;;;;;;;5.22;4.70;;;;;;;16.90;91.91;100364.12;1674945;85;27551;-67
2022/07/06 05:41:49;;;;;;;5.17;4.67;;;;;;;16.89;91.77;100367.98;1674920;85;25759;-67
2022/07/06 05:44:16;;;;;;;7.40;4.83;;;;;;;16.86;92.18;100369.49;1674624;85;26295;-67
2022/07/06 05:46:42;;;;;;;6.67;4.70;;;;;;;16.86;92.42;100363.24;1674820;85;25698;-67
2022/07/06 05:51:52;;;;;;;5.80;5.20;;;;;;;16.86;92.49;100364.61;1674815;85;29457;-67
2022/07/06 05:54:18;;;;;;;5.75;4.75;;;;;;;16.87;92.92;100368.33;1674843;85;25680;-68
2022/07/06 05:56:44;;;;;;;18.20;10.55;;;;;;;16.89;92.98;100366.06;1674688;85;25705;-67
2022/07/06 05:59:10;;;;;;;14.90;8.85;;;;;;;16.91;92.68;100371.19;1674871;85;25683;-67
2022/07/06 06:01:37;;;;;;;8.73;5.95;;;;;;;16.92;92.89;100379.58;1674814;85;25436;-67
2022/07/06 06:04:03;;;;;;;6.50;5.45;;;;;;;16.96;93.20;100375.81;1675054;85;27381;-68
2022/07/06 06:06:31;;;;;;;8.43;5.78;;;;;;;17.01;93.34;100374.77;1674481;85;25787;-67
2022/07/06 06:08:57;;;;;;;9.38;5.85;;;;;;;17.08;94.18;100370.84;1675068;85;25416;-66
2022/07/06 06:11:23;;;;;;;6.47;5.87;;;;;;;17.12;94.00;100374.45;1675071;84;25695;-67
2022/07/06 06:13:49;;;;;;;6.20;5.67;;;;;;;17.18;94.20;100381.84;1675023;85;25782;-67
2022/07/06 06:16:16;;;;;;;7.22;6.20;;;;;;;17.22;94.04;100377.83;1674898;85;28122;-67
2022/07/06 06:18:42;;;;;;;7.40;6.00;;;;;;;17.26;94.03;100377.34;1674672;85;25398;-67
2022/07/06 06:21:09;;;;;;;7.65;6.08;;;;;;;17.29;93.20;100379.37;1675225;85;25669;-67
2022/07/06 06:23:35;;;;;;;6.83;6.12;;;;;;;17.30;92.69;100382.34;1675039;85;25652;-67
2022/07/06 06:26:01;;;;;;;6.95;6.30;;;;;;;17.33;93.35;100381.05;1673213;85;25675;-67
2022/07/06 06:28:27;;;;;;;6.65;5.95;;;;;;;17.38;93.37;100383.29;1675053;85;27920;-67
2022/07/06 06:30:53;;;;;;;16.65;11.68;;;;;;;17.40;93.22;100392.75;1675555;84;25513;-67
2022/07/06 06:33:21;;;;;;;9.30;7.65;;;;;;;17.45;93.53;100385.64;1674932;85;25824;-68
2022/07/06 06:35:50;;;;;;;10.93;7.33;;;;;;;17.49;94.04;100382.99;1674881;85;26346;-67
2022/07/06 06:38:18;;;;;;;;;;;;;;;17.52;94.15;100383.63;1677340;85;25484;-67
2022/07/06 06:40:44;;;;;;;7.92;7.17;;;;;;;17.58;94.45;100382.80;1674866;85;27288;-67
2022/07/06 06:43:11;;;;;;;6.58;5.85;;;;;;;17.61;94.12;100385.63;1674760;85;25739;-67
2022/07/06 06:45:37;;;;;;;8.20;6.22;;;;;;;17.62;93.71;100381.75;1675009;84;25618;-67
2022/07/06 06:48:04;;;;;;;5.80;5.28;;;;;;;17.69;94.78;100379.18;1674890;85;25591;-67
2022/07/06 06:50:30;;;;;;;6.08;5.50;;;;;;;17.74;93.62;100383.02;1674831;85;25760;-67
2022/07/06 06:52:56;;;;;;;5.62;4.53;;;;;;;17.82;93.93;100383.95;1674915;85;28000;-67
2022/07/06 06:55:23;;;;;;;5.15;4.72;;;;;;;17.91;94.30;100385.16;1706405;82;25597;-66
2022/07/06 06:57:49;;;;;;;4.80;4.40;;;;;;;17.95;93.17;100388.00;1745014;82;25618;-66
2022/07/06 07:00:16;;;;;;;6.30;4.45;;;;;;;17.97;93.45;100390.58;1745051;82;26394;-67
2022/07/06 07:02:43;;;;;;;5.90;4.58;;;;;;;17.97;92.92;100391.95;1745324;82;25682;-67
2022/07/06 07:05:09;;;;;;;5.75;3.90;;;;;;;17.96;92.51;100392.30;1745056;82;27312;-67
2022/07/06 07:07:36;;;;;;;7.83;3.75;;;;;;;17.95;91.82;100396.99;1743574;82;25813;-66
2022/07/06 07:10:06;;;;;;;4.58;4.28;;;;;;;17.94;92.01;100394.61;1745330;82;25616;-67
2022/07/06 07:12:33;;;;;;;6.33;3.87;;;;;;;18.02;93.48;100388.94;1735308;81;25492;-67
2022/07/06 07:15:01;;;;;;;5.62;4.22;;;;;;;18.17;94.18;100384.58;1745075;82;25470;-67
2022/07/06 07:17:27;;;;;;;5.10;4.60;;;;;;;18.35;95.77;100384.94;1745174;81;27888;-67
2022/07/06 07:19:56;;;;;;;4.42;4.03;;;;;;;18.51;95.74;100386.26;1745232;82;25457;-67
2022/07/06 07:22:24;;;;;;;4.60;4.22;;;;;;;18.57;93.31;100387.53;1745241;82;25610;-69
2022/07/06 07:24:51;;;;;;;8.95;5.22;;;;;;;18.63;92.83;100394.33;1745283;82;27764;-67
2022/07/06 07:27:20;;;;;;;5.40;4.90;;;;;;;18.70;92.91;100392.89;1745478;81;25525;-67
2022/07/06 07:29:47;;;;;;;6.60;4.85;;;;;;;18.76;92.56;100400.45;1741122;82;27331;-67
2022/07/06 07:32:15;;;;;;;6.92;5.50;;;;;;;18.80;91.78;100403.27;1744953;82;25682;-67
2022/07/06 07:34:42;;;;;;;8.75;5.70;;;;;;;18.81;91.52;100402.91;1745073;82;25737;-68
2022/07/06 07:37:08;;;;;;;8.73;6.85;;;;;;;18.95;92.40;100402.97;1745210;82;25977;-67
2022/07/06 07:39:34;;;;;;;13.68;9.85;;;;;;;19.08;92.17;100407.72;1745180;82;25692;-67
2022/07/06 07:42:00;;;;;;;10.88;9.50;;;;;;;19.29;92.88;100408.11;1744600;82;27326;-67
2022/07/06 07:44:27;;;;;;;12.75;11.48;;;;;;;19.54;93.60;100407.72;1744473;82;25701;-67
2022/07/06 07:46:53;;;;;;;12.10;9.33;;;;;;;19.92;95.68;100405.41;1745366;82;25635;-67
2022/07/06 07:49:21;;;;;;;10.80;9.75;;;;;;;20.29;94.30;100406.69;1744999;82;26497;-68
2022/07/06 07:51:49;;;;;;;11.85;9.18;;;;;;;20.54;93.71;100413.88;1745343;82;25733;-67
2022/07/06 07:54:16;;;;;;;8.90;7.67;;;;;;;20.86;92.90;100421.16;1745075;82;27334;-67
2022/07/06 07:56:42;;;;;;;8.98;7.80;;;;;;;21.17;91.70;100414.20;1744645;82;25698;-67
2022/07/06 07:59:09;;;;;;;7.78;6.87;;;;;;;21.49;91.52;100408.22;1745276;82;25542;-67
2022/07/06 08:01:36;;;;;;;6.58;5.97;;;;;;;21.72;90.12;100411.55;1745225;82;25625;-67
2022/07/06 08:04:02;;;;;;;6.70;5.45;;;;;;;21.85;87.06;100409.89;1745306;82;25690;-68
2022/07/06 08:06:28;;;;;;;11.03;5.37;;;;;;;21.74;83.26;100416.67;1745256;82;28077;-67
2022/07/06 08:08:55;;;;;;;5.40;4.90;;;;;;;21.60;81.95;100420.11;1744824;82;25910;-68
2022/07/06 08:11:21;;;;;;;4.58;4.17;;;;;;;21.61;82.85;100417.58;1745135;82;25725;-68
2022/07/06 08:13:48;;;;;;;7.83;4.47;;;;;;;21.81;83.11;100413.97;1745186;82;27753;-68
2022/07/06 08:16:15;;;;;;;5.40;3.55;;;;;;;21.84;81.65;100413.20;1745271;82;25595;-68
2022/07/06 08:18:41;;;;;;;6.33;3.62;;;;;;;21.87;81.50;100412.45;1745175;82;27330;-68
2022/07/06 08:21:08;;;;;;;4.83;3.80;;;;;;;22.08;82.24;100413.16;1745048;82;25248;-68
2022/07/06 08:23:38;;;;;;;3.45;3.02;;;;;;;22.22;81.04;100419.36;1746041;82;25302;-68
2022/07/06 08:26:05;;;;;;;4.33;2.92;;;;;;;22.47;79.76;100411.81;1717128;82;26045;-68
2022/07/06 08:28:32;;;;;;;6.25;3.95;;;;;;;22.60;79.32;100415.81;1744736;82;25550;-68
2022/07/06 08:30:58;;;;;;;9.60;5.53;;;;;;;22.78;79.37;100416.45;1745025;82;27305;-69
2022/07/06 08:33:25;;;;;;;6.05;2.27;;;;;;;23.08;79.57;100412.03;1744937;82;25664;-67
2022/07/06 08:35:51;;;;;;;5.75;2.30;;;;;;;23.43;77.61;100412.66;1744937;82;25669;-68
2022/07/06 08:38:18;;;;;;;4.03;2.10;;;;;;;23.59;75.63;100412.26;1744445;82;25685;-69
2022/07/06 08:40:50;;;;;;;3.50;2.30;;;;;;;23.53;74.15;100414.42;1744934;82;25766;-68
2022/07/06 08:43:16;;;;;;;2.77;2.27;;;;;;;23.44;73.59;100410.68;1745154;82;27493;-69
2022/07/06 08:45:45;;;;;;;5.80;2.22;;;;;;;23.62;74.45;100408.71;1744940;82;25587;-68
2022/07/06 08:48:12;;;;;;;3.20;2.22;;;;;;;23.86;72.03;100407.73;1744974;82;25638;-69
2022/07/06 08:50:39;;;;;;;4.15;2.05;;;;;;;24.18;73.20;100404.89;1744879;82;25676;-70
2022/07/06 08:53:06;;;;;;;3.33;1.80;;;;;;;24.52;72.36;100398.84;1745066;82;25632;-69
2022/07/06 08:55:33;;;;;;;4.90;2.33;;;;;;;24.85;71.00;100402.86;1742871;82;27318;-68
2022/07/06 08:58:00;;;;;;;6.72;1.80;;;;;;;25.22;70.12;100411.13;1737811;82;25635;-68
2022/07/06 09:00:27;;;;;;;4.55;1.92;;;;;;;25.58;68.62;100408.88;1735260;82;25608;-68
2022/07/06 09:02:56;;;;;;;2.92;1.72;;;;;;;25.89;68.17;100412.53;1735342;82;25701;-68
2022/07/06 09:05:26;;;;;;;5.03;1.80;;;;;;;25.94;64.90;100418.23;1735163;82;25687;-68
2022/07/06 09:07:53;;;;;;;2.45;1.75;;;;;;;25.69;62.91;100417.08;1711090;82;26222;-67
2022/07/06 09:10:21;;;;;;;5.90;2.00;;;;;;;25.50;62.38;100417.05;1734976;82;25815;-67
2022/07/06 09:12:49;;;;;;;4.25;1.77;;;;;;;25.70;63.43;100414.51;1735371;82;25628;-66
2022/07/06 09:15:16;;;;;;;2.12;1.50;;;;;;;26.06;63.59;100410.02;1735225;82;26310;-67
2022/07/06 09:17:43;;;;;;;3.75;2.02;;;;;;;26.24;62.09;100411.22;1735167;82;25590;-66
2022/07/06 09:20:13;;;;;;;1.85;1.60;;;;;;;26.09;60.19;100418.30;1735346;82;27314;-67
2022/07/06 09:22:40;;;;;;;5.08;1.62;;;;;;;25.90;60.10;100419.66;1735183;82;25391;-66
2022/07/06 09:25:14;;;;;;;3.72;2.00;;;;;;;26.09;60.53;100418.91;1735318;82;25809;-66
2022/07/06 09:27:54;;;;;;;3.85;1.20;;;;;;;26.50;61.47;100408.32;1735170;82;25783;-66
2022/07/06 09:30:18;;;;;;;2.75;1.17;;;;;;;26.97;60.09;100404.92;1735007;82;25636;-66
2022/07/06 09:32:49;;;;;;;4.70;1.35;;;;;;;27.34;59.13;100399.81;1735107;82;29530;-66
2022/07/06 09:35:31;;;;;;;2.10;1.30;;;;;;;27.74;56.70;100399.94;1735171;82;25766;-67
2022/07/06 09:38:11;;;;;;;1.75;1.07;;;;;;;27.68;54.69;100394.68;1735301;82;25451;-67
2022/07/06 09:40:40;;;;;;;2.37;1.57;;;;;;;27.58;53.77;100392.87;1734980;82;26276;-66
2022/07/06 09:43:18;;;;;;;3.58;0.90;;;;;;;27.75;53.78;100395.16;1735254;82;25239;-65
2022/07/06 09:45:51;;;;;;;2.58;0.90;;;;;;;27.96;52.04;100388.47;1735379;82;27386;-66
2022/07/06 09:48:24;;;;;;;2.20;1.22;;;;;;;27.95;50.44;100396.61;1735240;82;25754;-66
2022/07/06 09:50:58;;;;;;;2.87;0.98;;;;;;;27.88;50.68;100396.11;1735365;82;25406;-66
2022/07/06 09:53:27;;;;;;;3.33;1.00;;;;;;;28.02;48.87;100394.30;1735320;82;27840;-67
2022/07/06 09:55:56;;;;;;;1.80;0.82;;;;;;;28.07;47.74;100402.92;1735410;82;32709;-66
2022/07/06 09:58:22;;;;;;;1.25;0.90;;;;;;;28.12;46.96;100403.04;1735789;81;27561;-65
2022/07/06 10:00:50;;;;;;;3.37;0.70;;;;;;;28.24;47.33;100401.62;1735351;82;25671;-66
2022/07/06 10:03:18;;;;;;;5.10;1.00;;;;;;;28.61;48.28;100396.91;1735753;82;25648;-66
2022/07/06 10:05:48;;;;;;;3.37;0.75;;;;;;;29.12;47.78;100393.78;1742343;82;27822;-67
2022/07/06 10:08:17;;;;;;;1.82;0.70;;;;;;;29.56;46.59;100395.08;1745406;82;25580;-66
2022/07/06 10:10:44;;;;;;;2.65;0.90;;;;;;;29.46;44.54;100393.35;1745422;82;27371;-67
2022/07/06 10:13:11;;;;;;;2.65;1.20;;;;;;;29.14;43.54;100391.33;1745168;82;25703;-67
2022/07/06 10:15:40;;;;;;;1.75;0.80;;;;;;;28.81;43.43;100387.91;1745313;82;25387;-67
2022/07/06 10:18:10;;;;;;;;;;;;;;;28.46;43.13;100400.57;1747943;82;26376;-67
2022/07/06 10:20:39;;;;;;;1.37;0.70;;;;;;;28.41;43.38;100399.07;1743400;82;25669;-67
2022/07/06 10:23:08;;;;;;;1.07;0.78;;;;;;;28.57;43.65;100393.41;1744567;82;27413;-67
2022/07/06 10:25:35;;;;;;;1.37;0.70;;;;;;;28.95;43.67;100388.19;1744669;82;25726;-67
2022/07/06 10:28:10;;;;;;;3.33;0.62;;;;;;;29.21;42.79;100393.34;1713920;82;25465;-67
2022/07/06 10:30:33;;;;;;;2.47;0.70;;;;;;;29.52;42.68;100389.42;1739623;82;26168;-66
2022/07/06 10:33:00;;;;;;;2.22;0.60;;;;;;;29.45;41.08;100400.13;1740204;82;25602;-67
2022/07/06 10:35:26;;;;;;;1.85;0.60;;;;;;;29.49;40.52;100398.06;1735992;82;27253;-66
2022/07/06 10:38:09;;;;;;;3.42;0.60;;;;;;;29.71;39.97;100398.88;1745178;82;25655;-67
2022/07/06 10:43:39;;;;;;;2.92;0.50;;;;;;;29.95;38.75;100375.75;1745307;82;25681;-68
2022/07/06 10:46:08;;;;;;;2.60;0.50;;;;;;;30.01;39.37;100396.30;1738399;82;25651;-66
2022/07/06 10:48:42;;;;;;;1.50;0.50;;;;;;;30.42;39.70;100394.77;1744280;82;27449;-68
2022/07/06 10:51:11;;;;;;;1.27;0.82;;;;;;;30.81;38.40;100390.63;1744330;82;25544;-68
2022/07/06 10:53:40;;;;;;;4.40;1.90;;;;;;;30.90;37.93;100383.14;1745266;82;25509;-68
2022/07/06 10:56:09;;;;;;;1.70;0.95;;;;;;;30.92;37.04;100384.07;1740750;81;25696;-67
2022/07/06 10:58:41;;;;;;;;;;;;;;;30.76;36.48;100391.95;1738137;82;25706;-68
2022/07/06 11:01:10;;;;;;;2.33;0.80;;;;;;;30.50;35.94;100391.94;1735480;82;27577;-68
2022/07/06 11:03:57;;;;;;;2.25;0.65;;;;;;;30.29;36.20;100394.72;1735275;82;25636;-68
2022/07/06 11:06:26;;;;;;;1.22;0.78;;;;;;;29.93;35.42;100398.52;1733652;82;25755;-69
2022/07/06 11:09:06;;;;;;;3.87;1.12;;;;;;;29.37;35.53;100401.52;1735566;82;25664;-69
2022/07/06 11:11:44;;;;;;;1.82;0.80;;;;;;;28.94;35.80;100398.36;1735045;82;25462;-68
2022/07/06 11:14:14;;;;;;;0.65;0.45;;;;;;;28.55;36.58;100400.80;1735515;82;27376;-68
2022/07/06 11:16:52;;;;;;;1.15;0.50;;;;;;;28.67;36.80;100395.98;1735227;82;25486;-67
2022/07/06 11:19:25;;;;;;;3.17;0.60;;;;;;;28.97;37.32;100389.15;1734972;82;25759;-67
2022/07/06 11:22:09;;;;;;;0.90;0.50;;;;;;;29.06;35.38;100397.08;1735359;82;25635;-67
2022/07/06 11:24:39;;;;;;;1.67;0.88;;;;;;;28.71;35.69;100388.13;1735422;82;25771;-70
2022/07/06 11:27:06;;;;;;;1.22;0.75;;;;;;;28.45;35.83;100378.94;1735249;82;27368;-71
2022/07/06 11:29:34;;;;;;;1.22;0.70;;;;;;;28.77;36.86;100381.62;1735194;82;25388;-71
2022/07/06 11:32:03;;;;;;;3.60;0.70;;;;;;;29.17;36.88;100376.58;1735385;82;25735;-71